Deerton, Michigan
Current Conditions -  °F | °C
As of 7:45 PM on Wednesday 22 Oct 2014 (Local Time) from KSAW Reporting Station
Clear Clear  
Wind Chill: 35°   Ceiling: Unl
Heat Index: 41°   Visibility: 10mi
Dew Point: 34°   Wind: 10mph
Humidity: 76%   Direction: 170°S
Pressure: 30.23"   Gusts: NA
Location:  46.47°N, 87.04°W
Report Text: KSAW 222345Z 17009KT 10SM SKC 05/01 A3023
Loading
Personal Weather Stations






























Interactive Weather Map
Tropical Storm Tracking
New forecast layout! Learn more

10-Day Weather Forecast

Advertisements
Track Severe Weather on mobile